Time;durP1;ratioP1;P1;durP2;ratioP2;P2;SDS_P1;SDS_P2;PMS_P1;PMS_P2;Temp;Humidity;BMP_temperature;BMP_pressure;BME280_temperature;BME280_humidity;BME280_pressure;Samples;Min_cycle;Max_cycle;Signal;HPM_P1;HPM_P2
2024/01/10 00:01:54;;;;;;;15.93;8.93;;;;;;;-3.40;88.59;103619.03;7394432;19;19936;-78
2024/01/10 00:04:23;;;;;;;15.27;8.57;;;;;;;-3.43;88.71;103622.59;7393043;19;19982;-78
2024/01/10 00:06:51;;;;;;;20.55;9.48;;;;;;;-3.42;88.45;103618.19;7392488;19;19929;-78
2024/01/10 00:09:20;;;;;;;18.95;9.00;;;;;;;-3.43;88.60;103622.59;7394512;19;19938;-77
2024/01/10 00:11:48;;;;;;;17.33;7.82;;;;;;;-3.42;88.58;103618.19;7398945;19;19915;-77
2024/01/10 00:14:17;;;;;;;15.57;7.82;;;;;;;-3.40;88.41;103613.75;7394151;19;19922;-78
2024/01/10 00:16:48;;;;;;;18.95;9.02;;;;;;;-3.37;88.52;103605.81;7395025;19;19927;-78
2024/01/10 00:19:17;;;;;;;17.73;8.60;;;;;;;-3.38;88.19;103604.94;7391800;19;19923;-77
2024/01/10 00:21:45;;;;;;;18.48;8.85;;;;;;;-3.38;88.34;103604.94;7389802;19;20292;-77
2024/01/10 00:24:14;;;;;;;13.40;8.25;;;;;;;-3.39;88.18;103603.19;7391485;19;19926;-78
2024/01/10 00:26:43;;;;;;;16.13;8.57;;;;;;;-3.40;88.16;103590.03;7393472;19;19941;-78
2024/01/10 00:29:11;;;;;;;14.80;8.13;;;;;;;-3.41;88.31;103597.06;7391177;19;19922;-78
2024/01/10 00:31:40;;;;;;;16.55;8.45;;;;;;;-3.41;88.25;103586.53;7392740;19;19918;-78
2024/01/10 00:34:31;;;;;;;15.70;7.95;;;;;;;-3.39;88.31;103586.50;7397734;19;19964;-78
2024/01/10 00:37:00;;;;;;;17.98;8.85;;;;;;;-3.39;87.92;103592.66;7398117;19;19936;-78
2024/01/10 00:39:28;;;;;;;17.73;8.00;;;;;;;-3.38;87.63;103588.25;7397664;19;19939;-78
2024/01/10 00:41:57;;;;;;;17.70;8.93;;;;;;;-3.41;87.83;103577.78;7399554;19;19922;-78
2024/01/10 00:44:26;;;;;;;19.00;8.63;;;;;;;-3.43;87.78;103579.53;7397536;19;19922;-78
2024/01/10 00:46:54;;;;;;;16.20;9.27;;;;;;;-3.43;87.96;103576.91;7400613;19;20309;-78
2024/01/10 00:49:24;;;;;;;17.00;8.70;;;;;;;-3.44;88.05;103569.88;7399173;19;19922;-79
2024/01/10 00:51:55;;;;;;;15.60;7.60;;;;;;;-3.49;87.89;103569.94;7400176;19;19922;-79
2024/01/10 00:54:23;;;;;;;18.75;9.35;;;;;;;-3.51;87.97;103579.66;7408135;19;19922;-79
2024/01/10 00:56:52;;;;;;;17.13;8.27;;;;;;;-3.51;88.03;103576.16;7404808;19;20331;-78
2024/01/10 00:59:20;;;;;;;16.63;8.63;;;;;;;-3.55;88.06;103567.41;7398736;19;20014;-78
2024/01/10 01:01:49;;;;;;;16.60;8.38;;;;;;;-3.56;88.25;103567.44;7400871;19;19945;-78
2024/01/10 01:04:18;;;;;;;18.75;9.23;;;;;;;-3.58;88.12;103571.88;7399829;19;20285;-78
2024/01/10 01:06:46;;;;;;;18.83;9.52;;;;;;;-3.63;88.06;103565.78;7397982;19;19918;-78
2024/01/10 01:09:17;;;;;;;16.10;9.15;;;;;;;-3.66;88.12;103575.44;7400746;19;20436;-78
2024/01/10 01:11:46;;;;;;;16.48;8.00;;;;;;;-3.66;88.28;103575.44;7402327;19;19937;-78
2024/01/10 01:14:15;;;;;;;18.50;8.63;;;;;;;-3.67;88.24;103578.13;7400881;19;19957;-79
2024/01/10 01:16:43;;;;;;;16.48;8.45;;;;;;;-3.67;88.37;103576.34;7402629;19;19914;-78
2024/01/10 01:19:12;;;;;;;18.95;8.68;;;;;;;-3.70;88.36;103576.38;7402274;19;19918;-79
2024/01/10 01:21:40;;;;;;;17.90;9.23;;;;;;;-3.71;88.30;103577.25;7396193;19;19937;-79
2024/01/10 01:24:09;;;;;;;17.58;8.63;;;;;;;-3.70;88.64;103573.75;7399721;19;19922;-79
2024/01/10 01:26:40;;;;;;;19.50;9.68;;;;;;;-3.68;88.65;103582.53;7398577;19;20268;-79
2024/01/10 01:29:09;;;;;;;17.00;8.63;;;;;;;-3.69;88.63;103579.88;7398243;19;20419;-78
2024/01/10 01:31:38;;;;;;;17.75;8.23;;;;;;;-3.70;88.52;103584.28;7401000;19;19923;-80
2024/01/10 01:34:06;;;;;;;18.92;9.15;;;;;;;-3.70;88.92;103575.50;7398960;19;19927;-79
2024/01/10 01:36:35;;;;;;;16.95;8.68;;;;;;;-3.70;88.78;103588.69;7398549;19;19926;-80
2024/01/10 01:39:04;;;;;;;17.83;9.93;;;;;;;-3.72;88.92;103578.19;7397231;19;20005;-79
2024/01/10 01:41:32;;;;;;;18.80;9.73;;;;;;;-3.72;89.19;103583.44;7400087;19;19918;-80
2024/01/10 01:44:03;;;;;;;22.17;10.60;;;;;;;-3.72;89.04;103593.97;7397532;19;20517;-80
2024/01/10 01:46:34;;;;;;;19.40;9.45;;;;;;;-3.74;89.01;103587.84;7400872;19;19922;-80
2024/01/10 01:49:03;;;;;;;17.73;10.18;;;;;;;-3.75;89.11;103586.09;7401176;19;19946;-80
2024/01/10 01:51:52;;;;;;;;;;;;;;;-3.78;89.65;103593.19;7399706;19;19922;-80
2024/01/10 01:54:21;;;;;;;21.88;9.07;;;;;;;-3.77;89.30;103584.38;7401542;19;19918;-80
2024/01/10 01:56:51;;;;;;;19.33;9.40;;;;;;;-3.79;89.32;103587.03;7399635;19;20255;-80
2024/01/10 01:59:22;;;;;;;20.65;9.02;;;;;;;-3.76;89.50;103587.00;7396614;19;20343;-80
2024/01/10 02:01:59;;;;;;;17.73;8.68;;;;;;;-3.74;89.44;103584.34;7400938;19;19925;-83
2024/01/10 02:04:30;;;;;;;18.58;8.85;;;;;;;-3.75;89.65;103580.84;7396985;19;19950;-80
2024/01/10 02:06:59;;;;;;;18.20;9.77;;;;;;;-3.73;89.61;103583.47;7399908;19;19919;-81
2024/01/10 02:09:28;;;;;;;18.65;9.88;;;;;;;-3.74;89.56;103574.69;7400096;19;20375;-80
2024/01/10 02:11:57;;;;;;;19.20;9.85;;;;;;;-3.71;89.68;103574.63;7399757;19;20279;-80
2024/01/10 02:14:29;;;;;;;18.00;9.15;;;;;;;-3.73;89.65;103568.53;7398873;19;20006;-80
2024/01/10 02:16:57;;;;;;;24.00;10.15;;;;;;;-3.73;89.85;103571.16;7399501;19;19919;-80
2024/01/10 02:19:28;;;;;;;18.98;9.75;;;;;;;-3.73;89.68;103584.34;7401703;19;19922;-81
2024/01/10 02:22:16;;;;;;;19.38;9.45;;;;;;;-3.73;89.71;103578.19;7402236;19;19923;-81
2024/01/10 02:24:45;;;;;;;19.08;9.20;;;;;;;-3.73;89.71;103565.03;7401643;19;19929;-81
2024/01/10 02:27:16;;;;;;;18.23;9.23;;;;;;;-3.72;90.00;103565.00;7403514;19;19915;-82
2024/01/10 02:29:44;;;;;;;17.30;9.35;;;;;;;-3.74;90.02;103561.50;7401755;19;19922;-81
2024/01/10 02:32:13;;;;;;;20.25;10.55;;;;;;;-3.72;89.90;103561.50;7401703;19;19933;-81
2024/01/10 02:34:42;;;;;;;18.80;10.02;;;;;;;-3.71;89.74;103568.53;7399080;19;19922;-81
2024/01/10 02:37:10;;;;;;;20.70;9.65;;;;;;;-3.75;89.88;103561.53;7401489;19;19918;-82
2024/01/10 02:39:39;;;;;;;22.98;10.38;;;;;;;-3.75;89.57;103564.16;7398265;19;19919;-82
2024/01/10 02:42:08;;;;;;;18.60;9.70;;;;;;;-3.79;89.58;103563.34;7402115;19;20271;-82
2024/01/10 02:44:39;;;;;;;18.33;9.70;;;;;;;-3.80;89.82;103560.75;7396808;19;19923;-83
2024/01/10 02:47:08;;;;;;;18.77;9.38;;;;;;;-3.81;89.84;103554.59;7399192;19;20626;-84
2024/01/10 02:49:37;;;;;;;18.58;9.98;;;;;;;-3.81;89.93;103556.34;7398377;19;19938;-83
2024/01/10 02:52:07;;;;;;;21.33;9.75;;;;;;;-3.81;89.90;103551.09;7398930;19;19923;-82
2024/01/10 02:54:35;;;;;;;17.63;9.43;;;;;;;-3.83;89.83;103552.84;7397962;19;19954;-83
2024/01/10 02:57:04;;;;;;;20.85;10.30;;;;;;;-3.83;89.75;103550.22;7398152;19;20267;-83
2024/01/10 02:59:33;;;;;;;16.77;9.15;;;;;;;-3.82;89.89;103550.22;7397740;19;19914;-83
2024/01/10 03:02:04;;;;;;;20.98;10.10;;;;;;;-3.81;89.93;103544.06;7398769;19;20344;-83
2024/01/10 03:04:32;;;;;;;20.80;9.40;;;;;;;-3.81;89.79;103544.06;7400894;19;19949;-83
2024/01/10 03:07:01;;;;;;;18.75;8.70;;;;;;;-3.83;89.75;103543.19;7400712;19;20013;-83
2024/01/10 03:09:29;;;;;;;17.83;8.70;;;;;;;-3.83;89.97;103543.19;7403273;19;20347;-83
2024/01/10 03:11:58;;;;;;;18.67;9.82;;;;;;;-3.81;89.94;103540.56;7407889;19;19922;-84
2024/01/10 03:14:27;;;;;;;18.95;9.43;;;;;;;-3.80;90.08;103531.78;7401173;19;19994;-84
2024/01/10 03:16:55;;;;;;;17.63;9.80;;;;;;;-3.81;89.94;103532.66;7399389;19;19919;-83
2024/01/10 03:19:26;;;;;;;17.02;10.10;;;;;;;-3.82;89.88;103531.78;7401502;19;19918;-83
2024/01/10 03:21:55;;;;;;;17.35;9.13;;;;;;;-3.82;89.99;103531.78;7398979;19;19940;-84
2024/01/10 03:24:26;;;;;;;16.92;9.13;;;;;;;-3.82;90.10;103531.78;7400745;19;19926;-84
2024/01/10 03:26:55;;;;;;;15.75;9.45;;;;;;;-3.80;90.22;103530.00;7398696;19;19958;-85
2024/01/10 03:29:23;;;;;;;17.08;8.55;;;;;;;-3.77;90.31;103531.72;7398141;19;20811;-85
2024/01/10 03:31:52;;;;;;;16.08;7.72;;;;;;;-3.76;90.26;103526.44;7399890;19;20337;-84
2024/01/10 03:34:21;;;;;;;20.40;9.13;;;;;;;-3.74;90.33;103511.47;7398219;19;19946;-85
2024/01/10 03:36:52;;;;;;;19.75;9.63;;;;;;;-3.73;90.16;103521.13;7396588;19;19923;-84
2024/01/10 03:39:20;;;;;;;17.55;9.35;;;;;;;-3.74;90.18;103516.75;7395622;19;19926;-86
2024/01/10 03:41:49;;;;;;;15.85;8.38;;;;;;;-3.73;90.15;103517.63;7397472;19;20371;-85
2024/01/10 03:44:17;;;;;;;17.42;8.85;;;;;;;-3.72;89.90;103511.47;7399180;19;20420;-85
2024/01/10 03:46:46;;;;;;;18.25;9.23;;;;;;;-3.72;89.66;103516.72;7398986;19;19946;-86
2024/01/10 03:49:15;;;;;;;15.50;7.80;;;;;;;-3.73;89.76;103518.50;7400442;19;19942;-86
2024/01/10 03:52:06;;;;;;;16.70;8.23;;;;;;;-3.76;89.71;103515.03;7397809;19;19926;-86
2024/01/10 03:54:36;;;;;;;15.20;8.60;;;;;;;-3.78;89.62;103515.03;7400063;19;19925;-86
2024/01/10 03:57:05;;;;;;;15.90;8.88;;;;;;;-3.80;89.69;103510.69;7405372;19;20343;-86
2024/01/10 03:59:33;;;;;;;15.75;10.07;;;;;;;-3.83;89.74;103505.44;7411210;19;19923;-86
2024/01/10 04:02:02;;;;;;;14.10;8.35;;;;;;;-3.86;89.63;103508.13;7408075;19;19923;-86
2024/01/10 04:04:31;;;;;;;16.73;8.68;;;;;;;-3.88;89.88;103512.56;7402898;19;19929;-87
2024/01/10 04:07:00;;;;;;;16.80;8.85;;;;;;;-3.89;89.88;103513.44;7403483;19;20368;-86
2024/01/10 04:09:31;;;;;;;18.35;9.25;;;;;;;-3.92;89.79;103506.44;7407072;19;19944;-86
2024/01/10 04:11:59;;;;;;;17.88;8.77;;;;;;;-3.94;89.86;103513.50;7404954;19;19915;-85
2024/01/10 04:14:28;;;;;;;16.75;8.85;;;;;;;-3.94;90.22;103508.25;7405728;19;19958;-85
2024/01/10 04:16:56;;;;;;;17.20;9.13;;;;;;;-3.91;90.44;103512.59;7403693;19;19927;-85
2024/01/10 04:19:25;;;;;;;16.98;8.25;;;;;;;-3.90;90.24;103509.06;7406034;19;19922;-86
2024/01/10 04:21:53;;;;;;;19.20;9.52;;;;;;;-3.89;90.18;103516.97;7403214;19;19918;-86
2024/01/10 04:24:22;;;;;;;15.60;8.73;;;;;;;-3.90;90.07;103512.56;7403930;19;20186;-86
2024/01/10 04:26:53;;;;;;;16.67;9.70;;;;;;;-3.89;90.28;103511.69;7404275;19;20067;-86
2024/01/10 04:29:22;;;;;;;18.48;9.60;;;;;;;-3.91;90.05;103510.81;7406598;19;19922;-85
2024/01/10 04:32:10;;;;;;;13.73;8.07;;;;;;;-3.93;90.13;103507.38;7404386;19;19924;-86
2024/01/10 04:34:39;;;;;;;19.27;9.85;;;;;;;-3.98;89.96;103511.81;7405546;19;19915;-87
2024/01/10 04:37:08;;;;;;;16.33;9.38;;;;;;;-4.00;90.06;103508.31;7405394;19;20291;-88
2024/01/10 04:39:37;;;;;;;16.83;8.95;;;;;;;-4.02;90.00;103511.88;7403523;19;19933;-87
2024/01/10 04:42:10;;;;;;;16.60;8.35;;;;;;;-4.05;90.03;103503.97;7403804;19;19922;-88
2024/01/10 04:44:38;;;;;;;15.20;8.60;;;;;;;-4.10;89.76;103498.81;7406442;19;19915;-87
2024/01/10 04:47:07;;;;;;;15.15;7.88;;;;;;;-4.12;90.08;103504.06;7406502;19;19914;-85
2024/01/10 04:49:36;;;;;;;16.75;9.00;;;;;;;-4.11;90.14;103499.69;7408006;19;19926;-88
2024/01/10 04:52:04;;;;;;;16.80;9.23;;;;;;;-4.14;90.15;103497.06;7406092;19;19922;-87
2024/01/10 04:54:33;;;;;;;17.40;8.98;;;;;;;-4.12;90.36;103495.31;7406319;19;19918;-87
2024/01/10 04:57:03;;;;;;;16.30;8.57;;;;;;;-4.08;90.23;103488.25;7406019;19;19929;-87
2024/01/10 04:59:34;;;;;;;17.67;8.98;;;;;;;-4.10;90.02;103495.31;7408151;19;19927;-87
2024/01/10 05:02:03;;;;;;;13.07;7.80;;;;;;;-4.07;90.11;103485.59;7404153;19;20569;-88
2024/01/10 05:04:31;;;;;;;16.27;8.25;;;;;;;-4.07;90.17;103496.13;7405484;19;19938;-87
2024/01/10 05:07:00;;;;;;;15.63;8.45;;;;;;;-4.06;90.11;103487.34;7401735;19;19911;-87
2024/01/10 05:09:28;;;;;;;13.95;7.85;;;;;;;-4.06;90.13;103487.34;7405936;19;19929;-87
2024/01/10 05:11:57;;;;;;;18.15;9.25;;;;;;;-4.07;90.33;103488.22;7404795;19;19922;-87
2024/01/10 05:14:25;;;;;;;19.70;9.07;;;;;;;-4.09;90.23;103483.84;7407851;19;19926;-87
2024/01/10 05:16:57;;;;;;;20.45;9.07;;;;;;;-4.10;90.29;103487.41;7402992;19;19946;-87
2024/01/10 05:19:25;;;;;;;14.00;8.45;;;;;;;-4.13;90.13;103483.03;7405866;19;19930;-85
2024/01/10 05:21:54;;;;;;;15.88;8.52;;;;;;;-4.14;89.84;103482.16;7403256;19;19942;-86
2024/01/10 05:24:23;;;;;;;14.40;7.90;;;;;;;-4.17;89.91;103469.03;7407855;19;19929;-86
2024/01/10 05:26:52;;;;;;;16.90;8.60;;;;;;;-4.20;90.10;103476.13;7409998;19;19927;-87
2024/01/10 05:29:23;;;;;;;15.70;7.82;;;;;;;-4.24;89.94;103480.53;7413988;19;20570;-87
2024/01/10 05:31:52;;;;;;;17.90;8.95;;;;;;;-4.24;90.24;103477.03;7402904;19;19934;-88
2024/01/10 05:34:23;;;;;;;16.60;8.40;;;;;;;-4.24;90.23;103477.91;7404047;19;19950;-87
2024/01/10 05:36:52;;;;;;;14.57;8.30;;;;;;;-4.26;90.47;103477.06;7402824;19;19942;-87
2024/01/10 05:39:21;;;;;;;20.38;9.50;;;;;;;-4.25;90.52;103478.81;7399793;19;19942;-87
2024/01/10 05:41:50;;;;;;;19.67;9.60;;;;;;;-4.24;90.51;103474.41;7405335;19;19919;-87
2024/01/10 05:44:18;;;;;;;16.90;9.65;;;;;;;-4.20;90.54;103476.13;7406934;19;19961;-86
2024/01/10 05:46:47;;;;;;;19.90;9.00;;;;;;;-4.15;90.62;103471.66;7406768;19;19933;-87
2024/01/10 05:49:16;;;;;;;18.38;9.43;;;;;;;-4.14;90.58;103471.63;7408910;19;19918;-86
2024/01/10 05:52:07;;;;;;;19.73;9.77;;;;;;;-4.10;90.60;103477.75;7402125;19;19923;-85
2024/01/10 05:54:36;;;;;;;20.25;9.48;;;;;;;-4.09;90.79;103479.47;7402857;19;20384;-86
2024/01/10 05:57:06;;;;;;;17.95;8.75;;;;;;;-4.08;90.50;103478.59;7405127;19;19926;-85
2024/01/10 05:59:35;;;;;;;16.23;8.95;;;;;;;-4.08;90.66;103481.22;7406716;19;19942;-85
2024/01/10 06:02:05;;;;;;;18.30;9.75;;;;;;;-4.09;90.43;103475.97;7404233;19;19925;-85
2024/01/10 06:04:33;;;;;;;20.60;10.02;;;;;;;-4.10;90.35;103480.38;7404675;19;19918;-85
2024/01/10 06:07:04;;;;;;;17.90;9.00;;;;;;;-4.11;90.38;103478.63;7399684;19;19957;-84
2024/01/10 06:09:35;;;;;;;21.27;10.27;;;;;;;-4.12;90.33;103476.88;7400260;19;19918;-85
2024/01/10 06:12:04;;;;;;;18.75;9.85;;;;;;;-4.12;90.29;103471.63;7401042;19;19918;-85
2024/01/10 06:14:32;;;;;;;23.80;12.20;;;;;;;-4.12;90.34;103471.63;7400461;19;20265;-85
2024/01/10 06:17:03;;;;;;;19.85;9.95;;;;;;;-4.12;90.55;103466.34;7402657;19;19922;-85
2024/01/10 06:19:32;;;;;;;21.08;9.38;;;;;;;-4.12;90.46;103477.75;7403030;19;19935;-84
2024/01/10 06:22:00;;;;;;;23.98;10.63;;;;;;;-4.15;90.37;103471.66;7398527;19;19954;-84
2024/01/10 06:24:29;;;;;;;21.40;10.23;;;;;;;-4.15;90.31;103469.03;7401492;19;19926;-84
2024/01/10 06:27:00;;;;;;;21.13;10.07;;;;;;;-4.14;90.68;103471.63;7400741;19;20388;-83
2024/01/10 06:29:29;;;;;;;20.58;10.30;;;;;;;-4.14;90.45;103473.38;7399219;19;19949;-83
2024/01/10 06:32:00;;;;;;;22.25;10.50;;;;;;;-4.15;90.54;103483.06;7398457;19;20348;-82
2024/01/10 06:34:29;;;;;;;19.60;9.10;;;;;;;-4.15;90.33;103483.06;7400943;19;19919;-83
2024/01/10 06:36:58;;;;;;;18.67;9.05;;;;;;;-4.16;90.36;103481.31;7398377;19;19927;-83
2024/01/10 06:39:27;;;;;;;24.05;10.88;;;;;;;-4.15;90.32;103476.94;7399805;19;19974;-82
2024/01/10 06:41:57;;;;;;;19.98;9.57;;;;;;;-4.15;90.18;103487.47;7396512;19;19922;-83
2024/01/10 06:44:29;;;;;;;22.52;10.40;;;;;;;-4.14;90.12;103486.53;7397332;19;23140;-82
2024/01/10 06:46:57;;;;;;;23.88;10.05;;;;;;;-4.16;89.71;103483.94;7401633;19;19989;-82
2024/01/10 06:49:27;;;;;;;19.02;10.25;;;;;;;-4.15;89.97;103484.81;7402357;19;19919;-82
2024/01/10 06:51:55;;;;;;;25.00;10.55;;;;;;;-4.15;89.75;103484.81;7405736;19;19919;-84
2024/01/10 06:54:24;;;;;;;20.40;9.55;;;;;;;-4.19;89.32;103488.38;7407012;19;19910;-82
2024/01/10 06:57:13;;;;;;;21.52;9.90;;;;;;;-4.24;89.72;103485.81;7402812;19;20353;-80
2024/01/10 06:59:44;;;;;;;22.90;9.43;;;;;;;-4.26;89.35;103495.47;7400210;19;20357;-81
2024/01/10 07:02:13;;;;;;;20.00;8.98;;;;;;;-4.25;89.59;103488.44;7399034;19;19922;-81
2024/01/10 07:04:42;;;;;;;21.40;8.88;;;;;;;-4.25;89.36;103488.44;7400685;19;19923;-81
2024/01/10 07:07:11;;;;;;;21.25;8.93;;;;;;;-4.25;89.39;103493.72;7399125;19;20010;-81
2024/01/10 07:09:40;;;;;;;18.10;8.13;;;;;;;-4.23;89.42;103497.22;7396627;19;20022;-82
2024/01/10 07:12:09;;;;;;;20.00;9.13;;;;;;;-4.23;89.28;103489.31;7394913;19;19943;-84
2024/01/10 07:14:38;;;;;;;25.70;10.63;;;;;;;-4.24;89.22;103492.84;7399809;19;20328;-85
2024/01/10 07:17:09;;;;;;;23.25;8.63;;;;;;;-4.24;89.34;103498.09;7399052;19;19978;-83
2024/01/10 07:19:38;;;;;;;21.08;9.27;;;;;;;-4.21;89.60;103511.22;7398604;19;19936;-82
2024/01/10 07:22:08;;;;;;;20.42;8.52;;;;;;;-4.19;89.61;103498.91;7399498;19;19918;-87
2024/01/10 07:24:37;;;;;;;15.50;7.85;;;;;;;-4.18;89.45;103493.63;7395499;19;19935;-88
2024/01/10 07:27:06;;;;;;;22.00;9.90;;;;;;;-4.18;89.41;103505.91;7399893;19;19922;-86
2024/01/10 07:29:35;;;;;;;21.88;10.15;;;;;;;-4.18;89.23;103492.75;7401879;19;20333;-87
2024/01/10 07:32:03;;;;;;;21.50;8.52;;;;;;;-4.18;89.22;103501.50;7401302;19;20014;-87
2024/01/10 07:34:34;;;;;;;24.00;9.95;;;;;;;-4.17;89.13;103497.13;7400472;19;19981;-86
2024/01/10 07:37:03;;;;;;;22.08;8.93;;;;;;;-4.19;88.97;103491.91;7400512;19;20411;-87
2024/01/10 07:39:32;;;;;;;24.15;9.60;;;;;;;-4.21;89.06;103482.25;7399289;19;19915;-86
2024/01/10 07:42:02;;;;;;;23.67;9.02;;;;;;;-4.19;89.20;103485.75;7404775;19;20558;-87
2024/01/10 07:44:30;;;;;;;25.60;9.23;;;;;;;-4.16;89.04;103485.72;7412490;19;19915;-85
2024/01/10 07:46:59;;;;;;;26.95;10.52;;;;;;;-4.16;88.94;103481.31;7413316;19;20264;-85
2024/01/10 07:49:29;;;;;;;20.05;7.60;;;;;;;-4.13;88.91;103490.94;7411763;19;19919;-85
2024/01/10 07:52:01;;;;;;;23.30;8.88;;;;;;;-4.12;88.67;103497.94;7409814;19;19945;-85
2024/01/10 07:54:31;;;;;;;21.67;8.43;;;;;;;-4.14;88.53;103502.34;7411040;19;19919;-85
2024/01/10 07:57:00;;;;;;;22.58;9.13;;;;;;;-4.14;88.82;103497.06;7408982;19;19919;-85
2024/01/10 07:59:32;;;;;;;23.20;8.63;;;;;;;-4.11;88.99;103491.78;7407394;19;20282;-84
2024/01/10 08:02:03;;;;;;;25.50;8.45;;;;;;;-4.09;89.13;103500.53;7404695;19;19917;-84
2024/01/10 08:04:31;;;;;;;22.77;8.93;;;;;;;-4.06;89.06;103511.03;7404491;19;19950;-84
2024/01/10 08:07:02;;;;;;;24.02;9.15;;;;;;;-4.06;88.97;103510.16;7405423;19;20282;-84
2024/01/10 08:09:31;;;;;;;22.20;8.50;;;;;;;-4.06;88.85;103513.66;7405104;19;19930;-84
2024/01/10 08:12:00;;;;;;;17.80;8.18;;;;;;;-4.05;88.78;103510.13;7400112;19;20284;-84
2024/01/10 08:14:29;;;;;;;22.27;8.27;;;;;;;-4.05;88.74;103501.34;7404459;19;19918;-85
2024/01/10 08:17:00;;;;;;;20.45;8.02;;;;;;;-4.04;88.62;103505.72;7400018;19;20388;-84
2024/01/10 08:19:29;;;;;;;23.67;8.90;;;;;;;-4.03;88.98;103512.75;7403205;19;20292;-84
2024/01/10 08:21:58;;;;;;;19.73;7.75;;;;;;;-4.01;88.85;103511.81;7404111;19;20336;-83
2024/01/10 08:24:29;;;;;;;19.30;8.05;;;;;;;-4.00;88.48;103518.84;7403275;19;19926;-82
2024/01/10 08:26:57;;;;;;;21.60;7.78;;;;;;;-4.00;88.53;103508.31;7401623;19;20572;-83
2024/01/10 08:29:30;;;;;;;23.13;7.43;;;;;;;-3.98;88.55;103509.19;7401027;19;19926;-83
2024/01/10 08:31:59;;;;;;;21.50;7.80;;;;;;;-3.96;88.60;103502.13;7400893;19;19942;-83
2024/01/10 08:34:27;;;;;;;20.58;7.70;;;;;;;-3.93;88.71;103507.38;7401579;19;19919;-83
2024/01/10 08:36:56;;;;;;;20.23;7.45;;;;;;;-3.91;88.86;103496.78;7402401;19;19946;-83
2024/01/10 08:39:27;;;;;;;22.05;7.45;;;;;;;-3.87;88.76;103499.34;7405247;19;19952;-82
2024/01/10 08:42:18;;;;;;;20.40;7.70;;;;;;;-3.83;88.61;103495.78;7401011;19;19922;-83
2024/01/10 08:44:47;;;;;;;19.00;7.60;;;;;;;-3.82;88.42;103501.94;7400480;19;19929;-83
2024/01/10 08:47:16;;;;;;;24.50;8.38;;;;;;;-3.81;88.63;103501.94;7401455;19;20352;-82
2024/01/10 08:49:44;;;;;;;17.13;7.15;;;;;;;-3.78;88.85;103509.78;7402956;19;19915;-82
2024/01/10 08:52:13;;;;;;;18.25;6.68;;;;;;;-3.74;88.63;103500.94;7401331;19;19922;-82
2024/01/10 08:54:42;;;;;;;19.60;7.47;;;;;;;-3.70;88.51;103505.28;7400495;19;20256;-82
2024/01/10 08:57:10;;;;;;;20.33;7.15;;;;;;;-3.67;88.28;103507.00;7402474;19;19914;-82
2024/01/10 08:59:44;;;;;;;18.58;7.32;;;;;;;-3.61;88.52;103501.63;7403074;19;19957;-83
2024/01/10 09:02:13;;;;;;;19.33;7.63;;;;;;;-3.56;88.56;103501.56;7395717;19;19929;-83
2024/01/10 09:04:42;;;;;;;21.95;6.95;;;;;;;-3.50;88.27;103493.59;7400228;19;19918;-82
2024/01/10 09:07:11;;;;;;;22.73;7.45;;;;;;;-3.47;88.37;103498.81;7398982;19;19922;-82
2024/01/10 09:09:40;;;;;;;20.48;6.80;;;;;;;-3.42;88.07;103496.97;7402464;19;19930;-82
2024/01/10 09:12:09;;;;;;;16.52;6.90;;;;;;;-3.36;87.93;103497.72;7401707;19;20249;-82
2024/01/10 09:15:00;;;;;;;19.02;7.57;;;;;;;-3.31;87.84;103488.00;7398749;19;20650;-82
2024/01/10 09:17:29;;;;;;;17.55;6.82;;;;;;;-3.25;87.89;103500.22;7400819;19;20753;-82
2024/01/10 09:19:57;;;;;;;18.40;7.40;;;;;;;-3.21;87.42;103496.63;7402427;19;20324;-82
2024/01/10 09:22:26;;;;;;;20.98;7.50;;;;;;;-3.15;87.43;103496.56;7402404;19;19926;-82
2024/01/10 09:24:54;;;;;;;17.88;6.68;;;;;;;-3.09;87.29;103492.91;7400758;19;20276;-82
2024/01/10 09:27:23;;;;;;;25.73;7.63;;;;;;;-3.04;87.13;103502.50;7402593;19;19938;-82
2024/01/10 09:29:52;;;;;;;17.70;6.75;;;;;;;-2.99;86.69;103498.03;7401851;19;19922;-82
2024/01/10 09:32:23;;;;;;;16.20;6.53;;;;;;;-2.97;86.46;103483.03;7402808;19;19943;-82
2024/01/10 09:34:51;;;;;;;17.73;7.07;;;;;;;-2.92;86.58;103485.59;7396437;19;19946;-82
2024/01/10 09:37:20;;;;;;;17.83;7.25;;;;;;;-2.87;86.44;103491.66;7397470;19;19978;-82
2024/01/10 09:39:48;;;;;;;20.80;7.75;;;;;;;-2.81;86.34;103487.16;7399631;19;19955;-81
2024/01/10 09:42:38;;;;;;;16.85;6.78;;;;;;;-2.74;86.36;103487.91;7404128;19;20799;-81
2024/01/10 09:45:08;;;;;;;17.42;7.22;;;;;;;-2.67;86.26;103488.66;7402893;19;19915;-81
2024/01/10 09:47:42;;;;;;;17.60;6.18;;;;;;;-2.64;85.46;103499.16;7401156;19;20336;-81
2024/01/10 09:50:12;;;;;;;15.82;5.80;;;;;;;-2.60;85.44;103487.66;7400223;19;19926;-82
2024/01/10 09:52:45;;;;;;;16.35;7.20;;;;;;;-2.57;84.90;103491.09;7397258;19;20018;-81
2024/01/10 09:55:16;;;;;;;16.92;6.72;;;;;;;-2.53;84.78;103481.34;7397116;19;20392;-82
2024/01/10 09:57:44;;;;;;;17.67;6.85;;;;;;;-2.48;84.23;103479.50;7396144;19;19919;-80
2024/01/10 10:00:15;;;;;;;19.00;6.60;;;;;;;-2.42;84.65;103476.75;7398604;19;19976;-80
2024/01/10 10:02:49;;;;;;;15.50;6.50;;;;;;;-2.36;84.47;103473.97;7396526;19;19914;-81
2024/01/10 10:05:19;;;;;;;21.13;7.07;;;;;;;-2.31;83.96;103477.41;7398865;19;19918;-80
2024/01/10 10:07:49;;;;;;;17.75;7.07;;;;;;;-2.27;83.49;103473.78;7398725;19;20594;-80
2024/01/10 10:10:19;;;;;;;13.38;6.28;;;;;;;-2.23;83.05;103475.47;7396349;19;19935;-81
2024/01/10 10:12:48;;;;;;;18.15;6.80;;;;;;;-2.16;82.75;103474.47;7397281;19;19919;-80
2024/01/10 10:15:18;;;;;;;16.35;6.40;;;;;;;-2.13;82.05;103476.16;7396101;19;19941;-80
2024/01/10 10:17:53;;;;;;;16.90;7.28;;;;;;;-2.08;82.12;103483.09;7398816;19;19919;-81
2024/01/10 10:20:23;;;;;;;14.55;5.97;;;;;;;-2.01;82.25;103471.47;7395258;19;19990;-81
2024/01/10 10:23:12;;;;;;;18.05;7.15;;;;;;;-1.98;79.75;103468.75;7396926;19;19925;-81
2024/01/10 10:25:47;;;;;;;13.30;6.03;;;;;;;-1.93;79.69;103469.53;7397915;19;20371;-81
2024/01/10 10:28:16;;;;;;;14.02;5.97;;;;;;;-1.88;78.63;103469.44;7396992;19;19935;-81
2024/01/10 10:30:45;;;;;;;15.50;6.18;;;;;;;-1.85;78.06;103467.59;7397309;19;19922;-81
2024/01/10 10:33:16;;;;;;;13.52;5.60;;;;;;;-1.77;79.13;103464.81;7394194;19;19922;-81
2024/01/10 10:35:47;;;;;;;15.13;5.72;;;;;;;-1.69;79.24;103465.50;7396087;19;19934;-81
2024/01/10 10:38:15;;;;;;;14.25;6.30;;;;;;;-1.61;79.12;103471.47;7396577;19;20261;-81
2024/01/10 10:40:44;;;;;;;13.63;5.88;;;;;;;-1.55;78.75;103462.50;7395326;19;19926;-80
2024/01/10 10:43:16;;;;;;;13.50;5.80;;;;;;;-1.50;78.35;103456.22;7394459;19;19939;-81
2024/01/10 10:45:50;;;;;;;16.83;6.10;;;;;;;-1.41;78.39;103458.66;7396875;19;19921;-80
2024/01/10 10:48:23;;;;;;;16.25;5.95;;;;;;;-1.35;77.17;103462.91;7394937;19;19944;-80
2024/01/10 10:50:58;;;;;;;13.57;6.38;;;;;;;-1.26;77.90;103467.13;7396831;19;19925;-81
2024/01/10 10:53:30;;;;;;;14.63;5.90;;;;;;;-1.20;76.63;103462.53;7397127;19;19922;-81
2024/01/10 10:56:01;;;;;;;16.63;5.85;;;;;;;-1.14;76.29;103470.31;7395773;19;19918;-81
2024/01/10 10:58:30;;;;;;;13.68;5.75;;;;;;;-1.08;76.18;103472.78;7396911;19;19915;-81
2024/01/10 11:01:00;;;;;;;15.48;6.57;;;;;;;-1.00;75.95;103467.34;7392253;19;19923;-81
2024/01/10 11:03:34;;;;;;;13.88;6.70;;;;;;;-0.91;76.17;103467.94;7394328;19;20581;-80
2024/01/10 11:06:04;;;;;;;17.13;6.50;;;;;;;-0.77;76.35;103472.88;7395290;19;19922;-81
2024/01/10 11:08:38;;;;;;;13.75;5.47;;;;;;;-0.65;76.33;103471.69;7395769;19;19922;-81
2024/01/10 11:11:16;;;;;;;13.50;5.43;;;;;;;-0.56;74.80;103466.16;7394750;19;19915;-81
2024/01/10 11:14:04;;;;;;;13.15;5.97;;;;;;;-0.48;73.80;103462.41;7395173;19;19939;-81
2024/01/10 11:17:00;;;;;;;12.95;5.93;;;;;;;-0.42;71.86;103466.63;7390252;19;20249;-81
2024/01/10 11:19:58;;;;;;;15.63;6.15;;;;;;;-0.33;71.55;103461.06;7397050;19;19940;-82
2024/01/10 11:22:43;;;;;;;13.40;5.70;;;;;;;-0.23;72.23;103477.56;7394501;19;19926;-82
2024/01/10 11:25:11;;;;;;;14.38;5.55;;;;;;;-0.13;72.84;103465.81;7394532;19;20043;-83
2024/01/10 11:27:40;;;;;;;10.80;4.88;;;;;;;0.00;73.53;103467.19;7396516;19;19923;-83
2024/01/10 11:30:10;;;;;;;11.50;5.82;;;;;;;0.11;72.75;103465.06;7394188;19;20309;-84
2024/01/10 11:32:40;;;;;;;15.80;6.68;;;;;;;0.22;72.82;103464.72;7395109;19;20265;-84